createdAt,value
2018-06-12T00:00:05.581Z,26.4
2018-06-12T00:02:05.268Z,26.4
2018-06-12T00:04:05.013Z,26.4
2018-06-12T00:06:04.863Z,26.4
2018-06-12T00:08:05.609Z,26.4
2018-06-12T00:10:05.363Z,26.3
2018-06-12T00:12:05.056Z,26.3
2018-06-12T00:14:04.809Z,26.3
2018-06-12T00:16:05.056Z,26.3
2018-06-12T00:18:05.019Z,26.3
2018-06-12T00:20:04.688Z,26.3
2018-06-12T00:22:07.480Z,26.3
2018-06-12T00:24:09.724Z,26.3
2018-06-12T00:26:05.405Z,26.3
2018-06-12T00:28:05.109Z,26.3
2018-06-12T00:30:12.436Z,26.3
2018-06-12T00:32:08.126Z,26.3
2018-06-12T00:34:04.817Z,26.3
2018-06-12T00:36:05.248Z,26.3
2018-06-12T00:38:13.033Z,26.3
2018-06-12T00:40:05.002Z,26.3
2018-06-12T00:42:05.222Z,26.3
2018-06-12T00:44:05.501Z,26.3
2018-06-12T00:46:05.272Z,26.3
2018-06-12T00:48:10.059Z,26.2
2018-06-12T00:50:15.026Z,26.2
2018-06-12T00:52:07.290Z,26.3
2018-06-12T00:54:07.706Z,26.2
2018-06-12T00:56:04.961Z,26.2
2018-06-12T00:58:07.652Z,26.2
2018-06-12T01:00:05.499Z,26.2
2018-06-12T01:02:05.233Z,26.2
2018-06-12T01:04:10.015Z,26.2
2018-06-12T01:06:04.763Z,26.2
2018-06-12T01:08:05.466Z,26.2
2018-06-12T01:10:08.751Z,26.2
2018-06-12T01:16:42.158Z,26.2
2018-06-12T01:18:13.625Z,26.2
2018-06-12T01:20:07.365Z,26.2
2018-06-12T01:22:05.165Z,26.2
2018-06-12T01:24:07.988Z,26.2
2018-06-12T01:26:12.273Z,26.2
2018-06-12T01:28:04.997Z,26.2
2018-06-12T01:30:07.263Z,26.2
2018-06-12T01:32:05.325Z,26.2
2018-06-12T01:34:10.119Z,26.2
2018-06-12T01:36:05.336Z,26.2
2018-06-12T01:38:05.074Z,26.2
2018-06-12T01:40:05.270Z,26.1
2018-06-12T01:42:05.104Z,26.2
2018-06-12T01:44:07.300Z,26.2
2018-06-12T01:46:04.992Z,26.1
2018-06-12T01:48:07.789Z,26.1
2018-06-12T01:50:05.705Z,26.1
2018-06-12T01:52:05.404Z,26.1
2018-06-12T01:54:05.127Z,26.1
2018-06-12T01:56:04.829Z,26.1
2018-06-12T01:58:05.492Z,26.1
2018-06-12T02:00:05.204Z,26.1
2018-06-12T02:02:13.071Z,26.1
2018-06-12T02:04:07.357Z,26.1
2018-06-12T02:06:05.063Z,26.1
2018-06-12T02:08:07.459Z,26.1
2018-06-12T02:10:05.131Z,26.1
2018-06-12T02:12:04.896Z,26.1
2018-06-12T02:14:04.890Z,26.1
2018-06-12T02:16:05.611Z,26.1
2018-06-12T02:18:05.152Z,26.1
2018-06-12T02:20:04.881Z,26.1
2018-06-12T02:22:05.517Z,26
2018-06-12T02:24:05.299Z,26.1
2018-06-12T02:26:04.713Z,26
2018-06-12T02:28:05.367Z,26.1
2018-06-12T02:30:07.579Z,26
2018-06-12T02:32:05.412Z,26
2018-06-12T02:34:04.590Z,26
2018-06-12T02:36:04.804Z,26
2018-06-12T02:38:10.476Z,26
2018-06-12T02:40:05.235Z,26
2018-06-12T02:42:07.592Z,26
2018-06-12T02:44:05.278Z,26
2018-06-12T02:46:07.570Z,26
2018-06-12T02:48:07.369Z,26
2018-06-12T02:50:05.069Z,26
2018-06-12T02:52:04.776Z,26
2018-06-12T02:54:05.436Z,26
2018-06-12T02:56:05.306Z,26
2018-06-12T02:58:05.189Z,26
2018-06-12T03:00:10.051Z,25.9
2018-06-12T03:02:07.571Z,26
2018-06-12T03:04:04.805Z,26
2018-06-12T03:06:08.040Z,26
2018-06-12T03:08:04.872Z,25.9
2018-06-12T03:10:05.566Z,25.9
2018-06-12T03:12:05.335Z,25.9
2018-06-12T03:14:11.356Z,25.9
2018-06-12T03:16:05.035Z,25.9
2018-06-12T03:18:05.006Z,25.9
2018-06-12T03:20:05.241Z,25.9
2018-06-12T03:22:04.936Z,25.9
2018-06-12T03:24:04.659Z,25.9
2018-06-12T03:26:05.659Z,25.9
2018-06-12T03:28:05.313Z,25.9
2018-06-12T03:30:05.026Z,25.9
2018-06-12T03:32:04.749Z,25.9
2018-06-12T03:34:05.410Z,25.9
2018-06-12T03:36:05.108Z,25.9
2018-06-12T03:38:07.305Z,25.8
2018-06-12T03:40:05.023Z,25.8
2018-06-12T03:42:04.693Z,25.9
2018-06-12T03:44:05.351Z,25.9
2018-06-12T03:46:12.755Z,25.8
2018-06-12T03:48:05.477Z,25.8
2018-06-12T03:50:05.189Z,25.8
2018-06-12T03:52:07.925Z,25.8
2018-06-12T03:54:04.650Z,25.8
2018-06-12T03:56:04.848Z,25.8
2018-06-12T03:58:05.560Z,25.8
2018-06-12T04:00:04.829Z,25.5
2018-06-12T04:02:13.080Z,24.7
2018-06-12T04:04:04.833Z,24.7
2018-06-12T04:06:10.792Z,24.3
2018-06-12T04:08:08.320Z,24.1
2018-06-12T04:10:04.996Z,24.1
2018-06-12T04:12:04.749Z,23.9
2018-06-12T04:14:05.442Z,23.8
2018-06-12T04:16:05.091Z,23.7
2018-06-12T04:18:05.033Z,23.5
2018-06-12T04:20:04.736Z,23.5
2018-06-12T04:22:05.457Z,23.4
2018-06-12T04:24:05.285Z,23.4
2018-06-12T04:26:10.077Z,23.3
2018-06-12T04:28:07.322Z,23.2
2018-06-12T04:30:05.097Z,23.2
2018-06-12T04:32:04.773Z,23.2
2018-06-12T04:34:05.444Z,23.1
2018-06-12T04:36:05.094Z,23
2018-06-12T04:38:04.884Z,23
2018-06-12T04:40:05.625Z,23
2018-06-12T04:42:07.833Z,22.9
2018-06-12T04:44:05.119Z,22.8
2018-06-12T04:46:04.959Z,22.8
2018-06-12T04:48:04.648Z,22.9
2018-06-12T04:50:05.618Z,22.9
2018-06-12T04:52:05.344Z,22.8
2018-06-12T04:54:05.331Z,22.7
2018-06-12T04:56:05.133Z,22.7
2018-06-12T04:58:05.441Z,22.6
2018-06-12T05:00:05.113Z,22.6
2018-06-12T05:02:04.821Z,22.6
2018-06-12T05:04:05.809Z,22.6
2018-06-12T05:06:05.525Z,22.5
2018-06-12T05:08:05.221Z,22.5
2018-06-12T05:10:04.911Z,22.5
2018-06-12T05:12:05.787Z,22.4
2018-06-12T05:14:04.987Z,22.4
2018-06-12T05:16:04.634Z,22.4
2018-06-12T05:18:05.498Z,22.4
2018-06-12T05:20:10.297Z,22.4
2018-06-12T05:22:05.711Z,22.4
2018-06-12T05:24:07.904Z,22.9
2018-06-12T05:26:05.629Z,22.8
2018-06-12T05:28:05.323Z,23.1
2018-06-12T05:30:07.529Z,23.5
2018-06-12T05:32:05.202Z,23.4
2018-06-12T05:34:05.748Z,23.6
2018-06-12T05:36:10.315Z,23.8
2018-06-12T05:38:13.112Z,23.9
2018-06-12T05:40:12.383Z,24
2018-06-12T05:42:05.069Z,24
2018-06-12T05:44:04.736Z,24.1
2018-06-12T05:46:05.009Z,24.1
2018-06-12T05:48:07.249Z,24.3
2018-06-12T05:50:07.484Z,24.3
2018-06-12T05:52:05.144Z,24.3
2018-06-12T05:54:07.336Z,24.5
2018-06-12T05:56:05.044Z,24.4
2018-06-12T05:58:04.711Z,24.5
2018-06-12T06:00:05.462Z,24.5
2018-06-12T06:02:05.166Z,24.6
2018-06-12T06:04:07.379Z,24.7
2018-06-12T06:06:10.166Z,24.7
2018-06-12T06:08:05.443Z,24.7
2018-06-12T06:10:05.264Z,24.7
2018-06-12T06:12:23.987Z,24.8
2018-06-12T06:14:08.177Z,24.8
2018-06-12T06:16:10.741Z,24.8
2018-06-12T06:18:06.172Z,24.8
2018-06-12T06:20:07.606Z,24.9
2018-06-12T06:22:05.326Z,24.9
2018-06-12T06:24:05.255Z,25
2018-06-12T06:26:04.963Z,25
2018-06-12T06:28:04.701Z,25
2018-06-12T06:30:05.343Z,25
2018-06-12T06:32:05.320Z,25.1
2018-06-12T06:34:05.581Z,25.1
2018-06-12T06:36:05.382Z,25.1
2018-06-12T06:38:07.591Z,25.1
2018-06-12T06:40:05.515Z,25.1
2018-06-12T06:42:05.240Z,25.1
2018-06-12T06:44:08.252Z,25.2
2018-06-12T06:46:05.051Z,25.1
2018-06-12T06:48:04.826Z,25.2
2018-06-12T06:50:08.057Z,25.2
2018-06-12T06:52:05.282Z,25.2
2018-06-12T06:54:05.009Z,25.2
2018-06-12T06:56:05.436Z,25.2
2018-06-12T06:58:04.674Z,25.3
2018-06-12T07:00:05.531Z,25.3
2018-06-12T07:02:05.209Z,25.3
2018-06-12T07:04:05.460Z,25.3
2018-06-12T07:06:04.660Z,25.3
2018-06-12T07:08:12.442Z,25.3
2018-06-12T07:10:05.095Z,25.3
2018-06-12T07:12:05.502Z,25.3
2018-06-12T07:14:05.209Z,25.3
2018-06-12T07:16:07.428Z,25.3
2018-06-12T07:18:05.553Z,25.3
2018-06-12T07:20:05.214Z,25.4
2018-06-12T07:22:04.957Z,25.4
2018-06-12T07:24:04.595Z,25.4
2018-06-12T07:26:05.736Z,25.4
2018-06-12T07:28:05.456Z,25.4
2018-06-12T07:30:07.699Z,25.4
2018-06-12T07:32:05.482Z,25.4
2018-06-12T07:34:07.687Z,25.5
2018-06-12T07:36:07.850Z,25.4
2018-06-12T07:38:08.059Z,25.4
2018-06-12T07:40:04.734Z,25.4
2018-06-12T07:42:05.483Z,25.5
2018-06-12T07:44:05.198Z,25.5
2018-06-12T07:46:04.912Z,25.5
2018-06-12T07:48:07.105Z,25.5
2018-06-12T07:50:07.330Z,25.5
2018-06-12T07:52:05.001Z,25.5
2018-06-12T07:54:04.636Z,25.5
2018-06-12T07:56:05.326Z,25.5
2018-06-12T07:58:05.554Z,25.5
2018-06-12T08:00:05.287Z,25.5
2018-06-12T08:02:10.052Z,25.5
2018-06-12T08:04:10.274Z,25.5
2018-06-12T08:06:05.013Z,25.5
2018-06-12T08:08:07.260Z,25.6
2018-06-12T08:10:07.654Z,25.5
2018-06-12T08:12:04.895Z,25.6
2018-06-12T08:14:05.960Z,25.6
2018-06-12T08:16:04.657Z,25.6
2018-06-12T08:18:05.483Z,25.6
2018-06-12T08:20:05.177Z,25.6
2018-06-12T08:22:04.831Z,25.6
2018-06-12T08:24:05.532Z,25.6
2018-06-12T08:26:05.268Z,25.6
2018-06-12T08:28:05.027Z,25.6
2018-06-12T08:30:05.868Z,25.6
2018-06-12T08:32:07.828Z,25.6
2018-06-12T08:34:05.478Z,25.6
2018-06-12T08:36:05.386Z,25.6
2018-06-12T08:38:05.068Z,25.6
2018-06-12T08:40:05.013Z,25.6
2018-06-12T08:42:08.071Z,25.6
2018-06-12T08:44:04.734Z,25.6
2018-06-12T08:46:05.385Z,25.6
2018-06-12T08:48:05.108Z,25.6
2018-06-12T08:50:04.830Z,25.6
2018-06-12T08:52:08.027Z,25.7
2018-06-12T08:54:04.703Z,25.6
2018-06-12T08:56:05.424Z,25.7
2018-06-12T08:58:04.679Z,25.7
2018-06-12T09:00:05.336Z,25.7
2018-06-12T09:02:05.140Z,25.7
2018-06-12T09:04:04.880Z,25.7
2018-06-12T09:06:05.569Z,25.7
2018-06-12T09:08:05.281Z,25.7
2018-06-12T09:10:04.983Z,25.8
2018-06-12T09:12:09.808Z,25.7
2018-06-12T09:14:12.679Z,25.7
2018-06-12T09:16:05.386Z,25.7
2018-06-12T09:18:05.274Z,25.7
2018-06-12T09:20:05.780Z,25.7
2018-06-12T09:22:05.484Z,25.7
2018-06-12T09:24:12.827Z,25.7
2018-06-12T09:26:05.145Z,25.7
2018-06-12T09:28:04.849Z,25.7
2018-06-12T09:30:10.559Z,25.7
2018-06-12T09:32:05.331Z,25.7
2018-06-12T09:34:10.050Z,25.7
2018-06-12T09:36:07.502Z,25.7
2018-06-12T09:38:04.792Z,25.7
2018-06-12T09:40:05.566Z,25.7
2018-06-12T09:42:05.375Z,25.7
2018-06-12T09:44:05.269Z,25.7
2018-06-12T09:46:05.491Z,25.7
2018-06-12T09:48:04.719Z,25.7
2018-06-12T09:50:07.924Z,25.7
2018-06-12T09:52:05.245Z,25.7
2018-06-12T09:54:04.942Z,25.7
2018-06-12T09:56:04.650Z,25.7
2018-06-12T09:58:07.894Z,25.7
2018-06-12T10:00:05.577Z,25.8
2018-06-12T10:02:05.315Z,25.8
2018-06-12T10:04:05.166Z,25.8
2018-06-12T10:06:04.843Z,25.8
2018-06-12T10:08:05.573Z,25.8
2018-06-12T10:10:05.283Z,25.8
2018-06-12T10:12:04.990Z,25.8
2018-06-12T10:14:05.241Z,25.8
2018-06-12T10:16:04.870Z,25.8
2018-06-12T10:18:05.322Z,25.8
2018-06-12T10:20:05.310Z,25.8
2018-06-12T10:22:04.999Z,25.8
2018-06-12T10:24:04.720Z,25.8
2018-06-12T10:26:05.410Z,25.8
2018-06-12T10:28:05.110Z,25.8
2018-06-12T10:30:04.878Z,25.8
2018-06-12T10:32:04.613Z,25.7
2018-06-12T10:34:05.279Z,25.7
2018-06-12T10:36:04.941Z,25.8
2018-06-12T10:38:08.495Z,25.8
2018-06-12T10:40:05.156Z,25.8
2018-06-12T10:42:12.968Z,25.8
2018-06-12T10:44:04.753Z,25.8
2018-06-12T10:46:05.435Z,25.8
2018-06-12T10:48:05.133Z,25.8
2018-06-12T10:50:04.974Z,25.8
2018-06-12T10:52:05.035Z,25.8
2018-06-12T10:54:04.728Z,25.9
2018-06-12T10:56:13.018Z,25.9
2018-06-12T10:58:04.710Z,25.8
2018-06-12T11:00:05.400Z,25.9
2018-06-12T11:02:05.089Z,25.9
2018-06-12T11:04:07.310Z,25.9
2018-06-12T11:06:05.002Z,25.9
2018-06-12T11:08:07.269Z,25.8
2018-06-12T11:10:04.947Z,25.9
2018-06-12T11:12:07.286Z,25.9
2018-06-12T11:14:08.014Z,25.9
2018-06-12T11:16:04.746Z,25.8
2018-06-12T11:18:04.631Z,25.9
2018-06-12T11:20:05.333Z,25.9
2018-06-12T11:22:05.008Z,25.9
2018-06-12T11:24:04.901Z,25.9
2018-06-12T11:26:05.118Z,25.9
2018-06-12T11:28:04.806Z,25.9
2018-06-12T11:30:04.754Z,25.9
2018-06-12T11:32:05.511Z,25.9
2018-06-12T11:34:04.791Z,25.9
2018-06-12T11:36:08.091Z,25.9
2018-06-12T11:38:09.849Z,25.9
2018-06-12T11:40:05.000Z,25.8
2018-06-12T11:42:05.248Z,25.9
2018-06-12T11:44:08.289Z,25.9
2018-06-12T11:46:07.483Z,25.9
2018-06-12T11:48:05.158Z,25.9
2018-06-12T11:50:04.891Z,25.9
2018-06-12T11:52:05.067Z,25.9
2018-06-12T11:54:04.738Z,25.9
2018-06-12T11:56:08.254Z,25.9
2018-06-12T11:58:05.014Z,25.9
2018-06-12T12:00:05.202Z,25.9
2018-06-12T12:02:04.865Z,25.9
2018-06-12T12:04:05.533Z,25.9
2018-06-12T12:06:07.897Z,25.9
2018-06-12T12:08:05.176Z,25.9
2018-06-12T12:10:04.962Z,25.9
2018-06-12T12:12:07.167Z,25.9
2018-06-12T12:14:07.918Z,25.9
2018-06-12T12:16:05.629Z,25.9
2018-06-12T12:18:05.081Z,25.9
2018-06-12T12:20:05.276Z,25.9
2018-06-12T12:22:05.036Z,25.9
2018-06-12T12:24:04.696Z,25.9
2018-06-12T12:26:05.398Z,25.9
2018-06-12T12:28:10.090Z,25.9
2018-06-12T12:30:14.876Z,25.8
2018-06-12T12:32:08.356Z,25.9
2018-06-12T12:34:05.153Z,25.9
2018-06-12T12:36:04.885Z,25.9
2018-06-12T12:38:05.191Z,25.9
2018-06-12T12:40:04.893Z,25.8
2018-06-12T12:42:05.611Z,25.8
2018-06-12T12:44:05.447Z,25.9
2018-06-12T12:46:05.138Z,25.8
2018-06-12T12:48:04.824Z,25.8
2018-06-12T12:50:05.932Z,25.8
2018-06-12T12:52:05.615Z,25.9
2018-06-12T12:54:05.254Z,25.9
2018-06-12T12:56:04.943Z,25.9
2018-06-12T12:58:10.643Z,26
2018-06-12T13:00:05.304Z,26
2018-06-12T13:02:05.025Z,26.1
2018-06-12T13:04:12.302Z,26.1
2018-06-12T13:06:05.001Z,26.1
2018-06-12T13:08:04.708Z,26.1
2018-06-12T13:10:04.975Z,26.1
2018-06-12T13:12:04.719Z,26.2
2018-06-12T13:14:05.298Z,26.2
2018-06-12T13:16:05.507Z,26.2
2018-06-12T13:18:05.481Z,26.2
2018-06-12T13:20:07.971Z,26.2
2018-06-12T13:22:07.321Z,26.2
2018-06-12T13:24:05.525Z,26.2
2018-06-12T13:26:12.902Z,26.1
2018-06-12T13:28:05.669Z,26.2
2018-06-12T13:30:04.894Z,26.2
2018-06-12T13:32:13.145Z,26.2
2018-06-12T13:34:04.949Z,26.2
2018-06-12T13:36:04.672Z,26
2018-06-12T13:38:05.342Z,26
2018-06-12T13:40:05.048Z,25.7
2018-06-12T13:42:07.770Z,25.5
2018-06-12T13:44:13.036Z,25.4
2018-06-12T13:46:04.722Z,25.3
2018-06-12T13:48:05.417Z,25.3
2018-06-12T13:50:07.871Z,25.3
2018-06-12T13:52:05.582Z,25.3
2018-06-12T13:54:05.247Z,25.3
2018-06-12T13:56:07.488Z,25.3
2018-06-12T13:58:05.155Z,25.2
2018-06-12T14:00:04.856Z,25.3
2018-06-12T14:02:15.988Z,25.2
2018-06-12T14:04:10.265Z,25.1
2018-06-12T14:06:04.987Z,25.1
2018-06-12T14:08:07.275Z,25.1
2018-06-12T14:10:07.456Z,25.1
2018-06-12T14:12:07.664Z,25.1
2018-06-12T14:14:08.135Z,25.1
2018-06-12T14:16:07.349Z,25.2
2018-06-12T14:18:07.265Z,25.2
2018-06-12T14:20:05.517Z,25.2
2018-06-12T14:22:05.211Z,25.2
2018-06-12T14:24:04.898Z,25.1
2018-06-12T14:26:08.156Z,25.1
2018-06-12T14:28:04.833Z,25.1
2018-06-12T14:30:05.573Z,25.1
2018-06-12T14:32:07.843Z,25
2018-06-12T14:34:05.508Z,25
2018-06-12T14:36:04.705Z,25
2018-06-12T14:38:05.396Z,25.1
2018-06-12T14:40:07.410Z,25
2018-06-12T14:42:05.584Z,25
2018-06-12T14:44:05.390Z,24.9
2018-06-12T14:46:05.137Z,24.9
2018-06-12T14:48:05.264Z,24.9
2018-06-12T14:50:05.034Z,24.9
2018-06-12T14:52:04.798Z,25
2018-06-12T14:54:05.537Z,25.1
2018-06-12T14:56:05.634Z,25.2
2018-06-12T14:58:05.417Z,25.3
2018-06-12T15:00:08.303Z,25.3
2018-06-12T15:02:07.698Z,25.3
2018-06-12T15:04:05.453Z,25.3
2018-06-12T15:06:12.766Z,25.4
2018-06-12T15:08:10.392Z,25.4
2018-06-12T15:10:04.867Z,25.4
2018-06-12T15:12:04.774Z,25.4
2018-06-12T15:14:04.969Z,25.5
2018-06-12T15:16:04.643Z,25.4
2018-06-12T15:18:05.520Z,25.5
2018-06-12T15:20:05.204Z,25.5
2018-06-12T15:22:07.417Z,25.5
2018-06-12T15:24:05.155Z,25.5
2018-06-12T15:26:04.911Z,25.5
2018-06-12T15:28:05.566Z,25.5
2018-06-12T15:30:04.811Z,25.6
2018-06-12T15:32:05.357Z,25.6
2018-06-12T15:34:05.276Z,25.6
2018-06-12T15:36:13.099Z,25.6
2018-06-12T15:38:09.791Z,25.6
2018-06-12T15:40:04.953Z,25.6
2018-06-12T15:42:04.634Z,25.6
2018-06-12T15:44:05.288Z,25.6
2018-06-12T15:46:04.799Z,25.6
2018-06-12T15:48:08.058Z,25.6
2018-06-12T15:50:04.762Z,25.6
2018-06-12T15:52:10.508Z,25.7
2018-06-12T15:54:04.919Z,25.7
2018-06-12T15:56:04.959Z,25.7
2018-06-12T15:58:04.888Z,25.7
2018-06-12T16:00:04.973Z,25.7
2018-06-12T16:02:05.021Z,25.7
2018-06-12T16:04:07.479Z,25.7
2018-06-12T16:06:05.147Z,25.7
2018-06-12T16:08:17.426Z,25.7
2018-06-12T16:10:05.405Z,25.7
2018-06-12T16:12:05.123Z,25.7
2018-06-12T16:14:05.520Z,25.7
2018-06-12T16:16:05.111Z,25.7
2018-06-12T16:18:10.103Z,25.7
2018-06-12T16:20:04.768Z,25.7
2018-06-12T16:22:05.489Z,25.7
2018-06-12T16:24:07.290Z,25.7
2018-06-12T16:26:05.530Z,25.7
2018-06-12T16:28:05.649Z,25.7
2018-06-12T16:30:06.518Z,25.7
2018-06-12T16:32:07.730Z,25.8
2018-06-12T16:34:05.445Z,25.8
2018-06-12T16:36:05.155Z,25.8
2018-06-12T16:38:05.053Z,25.8
2018-06-12T16:40:05.289Z,25.8
2018-06-12T16:42:05.180Z,25.8
2018-06-12T16:44:05.451Z,25.8
2018-06-12T16:46:04.770Z,25.8
2018-06-12T16:48:05.170Z,25.9
2018-06-12T16:50:05.398Z,25.8
2018-06-12T16:52:05.125Z,25.8
2018-06-12T16:54:04.827Z,25.9
2018-06-12T16:56:04.755Z,25.9
2018-06-12T16:58:08.036Z,25.9
2018-06-12T17:00:04.767Z,25.9
2018-06-12T17:02:05.697Z,25.6
2018-06-12T17:04:05.509Z,25.5
2018-06-12T17:06:05.313Z,25.6
2018-06-12T17:08:05.589Z,25.5
2018-06-12T17:10:04.754Z,25.5
2018-06-12T17:12:05.230Z,25.5
2018-06-12T17:14:07.484Z,25.3
2018-06-12T17:16:07.693Z,25.4
2018-06-12T17:18:07.697Z,25.4
2018-06-12T17:20:08.171Z,25.3
2018-06-12T17:22:05.077Z,25.3
2018-06-12T17:24:04.865Z,25.2
2018-06-12T17:26:05.538Z,25
2018-06-12T17:28:05.404Z,24.7
2018-06-12T17:30:07.692Z,24.4
2018-06-12T17:32:05.351Z,24.4
2018-06-12T17:34:07.753Z,24.2
2018-06-12T17:36:05.682Z,24.2
2018-06-12T17:38:05.562Z,24.2
2018-06-12T17:40:05.472Z,24.2
2018-06-12T17:42:15.265Z,24.5
2018-06-12T17:44:05.251Z,24.5
2018-06-12T17:46:10.078Z,24.6
2018-06-12T17:48:04.739Z,24.7
2018-06-12T17:50:07.817Z,24.7
2018-06-12T17:52:05.491Z,24.7
2018-06-12T17:54:05.404Z,24.7
2018-06-12T17:56:05.824Z,24.7
2018-06-12T17:58:05.106Z,24.7
2018-06-12T18:00:05.016Z,24.8
2018-06-12T18:02:05.834Z,24.8
2018-06-12T18:04:05.536Z,24.8
2018-06-12T18:06:05.231Z,24.5
2018-06-12T18:08:05.391Z,24.3
2018-06-12T18:10:05.097Z,24.5
2018-06-12T18:12:07.694Z,24.7
2018-06-12T18:14:05.669Z,24.7
2018-06-12T18:16:05.403Z,24.8
2018-06-12T18:18:04.826Z,24.9
2018-06-12T18:20:07.642Z,25
2018-06-12T18:22:05.366Z,25
2018-06-12T18:24:05.033Z,25.1
2018-06-12T18:26:04.699Z,25.1
2018-06-12T18:28:07.891Z,25.2
2018-06-12T18:30:07.684Z,25.3
2018-06-12T18:32:05.351Z,25.3
2018-06-12T18:34:05.349Z,25.3
2018-06-12T18:36:05.277Z,25.3
2018-06-12T18:38:06.224Z,25.1
2018-06-12T18:40:07.668Z,25.1
2018-06-12T18:42:05.431Z,25.1
2018-06-12T18:44:07.676Z,25.3
2018-06-12T18:46:07.621Z,25.3
2018-06-12T18:48:05.393Z,25.3
2018-06-12T18:50:05.066Z,25.3
2018-06-12T18:52:08.347Z,25.4
2018-06-12T18:54:07.559Z,25.4
2018-06-12T18:56:05.696Z,25.4
2018-06-12T18:58:07.826Z,25.5
2018-06-12T19:00:04.784Z,25.5
2018-06-12T19:02:09.940Z,25.5
2018-06-12T19:04:05.107Z,25.5
2018-06-12T19:06:05.032Z,25.5
2018-06-12T19:08:04.722Z,25.5
2018-06-12T19:10:05.412Z,25.5
2018-06-12T19:12:05.097Z,25.6
2018-06-12T19:14:04.826Z,25.6
2018-06-12T19:16:04.711Z,25.6
2018-06-12T19:18:05.617Z,25.6
2018-06-12T19:20:05.405Z,25.6
2018-06-12T19:22:05.543Z,25.6
2018-06-12T19:24:07.775Z,25.6
2018-06-12T19:26:05.491Z,25.6
2018-06-12T19:28:06.208Z,25.6
2018-06-12T19:30:04.903Z,25.7
2018-06-12T19:32:08.384Z,25.7
2018-06-12T19:34:05.049Z,25.7
2018-06-12T19:36:04.752Z,25.7
2018-06-12T19:38:04.833Z,25.7
2018-06-12T19:40:06.488Z,25.7
2018-06-12T19:42:07.702Z,25.7
2018-06-12T19:44:05.382Z,25.7
2018-06-12T19:46:05.137Z,25.7
2018-06-12T19:48:04.818Z,25.8
2018-06-12T19:50:08.098Z,25.8
2018-06-12T19:52:09.872Z,25.8
2018-06-12T19:54:04.594Z,25.8
2018-06-12T19:56:05.329Z,25.8
2018-06-12T19:58:05.304Z,25.8
2018-06-12T20:00:04.983Z,25.8
2018-06-12T20:02:05.300Z,25.8
2018-06-12T20:04:04.961Z,25.8
2018-06-12T20:06:05.501Z,25.8
2018-06-12T20:08:05.300Z,25.8
2018-06-12T20:10:05.601Z,25.8
2018-06-12T20:12:08.277Z,25.8
2018-06-12T20:14:05.651Z,25.8
2018-06-12T20:16:07.849Z,25.8
2018-06-12T20:18:04.794Z,25.7
2018-06-12T20:20:05.031Z,25.8
2018-06-12T20:22:04.691Z,25.8
2018-06-12T20:24:08.006Z,25.8
2018-06-12T20:26:04.963Z,25.8
2018-06-12T20:28:04.627Z,25.8
2018-06-12T20:30:08.057Z,25.8
2018-06-12T20:32:04.949Z,25.8
2018-06-12T20:34:04.888Z,25.8
2018-06-12T20:36:07.317Z,25.8
2018-06-12T20:38:05.267Z,25.8
2018-06-12T20:40:08.065Z,25.8
2018-06-12T20:42:05.977Z,25.8
2018-06-12T20:44:05.688Z,25.8
2018-06-12T20:46:05.572Z,25.8
2018-06-12T20:48:07.789Z,25.8
2018-06-12T20:50:05.139Z,25.8
2018-06-12T20:52:08.274Z,25.8
2018-06-12T20:54:04.990Z,25.8
2018-06-12T20:56:04.799Z,25.8
2018-06-12T20:58:04.620Z,25.8
2018-06-12T21:00:13.057Z,25.8
2018-06-12T21:02:04.948Z,25.8
2018-06-12T21:04:04.848Z,25.8
2018-06-12T21:06:05.529Z,25.8
2018-06-12T21:08:05.438Z,25.8
2018-06-12T21:10:05.210Z,25.8
2018-06-12T21:12:05.082Z,25.8
2018-06-12T21:14:12.285Z,25.8
2018-06-12T21:16:04.987Z,25.8
2018-06-12T21:18:04.991Z,25.8
2018-06-12T21:20:07.241Z,25.8
2018-06-12T21:22:05.107Z,25.8
2018-06-12T21:24:04.773Z,25.8
2018-06-12T21:26:05.553Z,25.8
2018-06-12T21:28:05.201Z,25.8
2018-06-12T21:30:05.324Z,25.8
2018-06-12T21:32:10.109Z,25.8
2018-06-12T21:34:05.755Z,25.8
2018-06-12T21:36:05.631Z,25.8
2018-06-12T21:38:05.297Z,25.8
2018-06-12T21:40:05.178Z,25.8
2018-06-12T21:42:09.943Z,25.8
2018-06-12T21:44:04.744Z,25.8
2018-06-12T21:46:04.682Z,25.8
2018-06-12T21:48:06.509Z,25.8
2018-06-12T21:50:05.260Z,25.8
2018-06-12T21:52:05.036Z,25.8
2018-06-12T21:54:04.777Z,25.8
2018-06-12T21:56:06.529Z,25.8
2018-06-12T21:58:05.271Z,25.8
2018-06-12T22:00:04.924Z,25.8
2018-06-12T22:02:05.369Z,25.8
2018-06-12T22:04:05.157Z,25.8
2018-06-12T22:06:10.160Z,25.8
2018-06-12T22:08:04.838Z,25.8
2018-06-12T22:10:08.076Z,25.8
2018-06-12T22:12:04.786Z,25.8
2018-06-12T22:14:04.727Z,25.8
2018-06-12T22:16:05.438Z,25.8
2018-06-12T22:18:05.365Z,25.8
2018-06-12T22:20:05.108Z,25.7
2018-06-12T22:22:04.978Z,25.8
2018-06-12T22:24:04.702Z,25.8
2018-06-12T22:26:05.573Z,25.8
2018-06-12T22:28:04.769Z,25.8
2018-06-12T22:30:05.025Z,25.8
2018-06-12T22:32:05.035Z,25.8
2018-06-12T22:34:04.837Z,25.8
2018-06-12T22:36:04.720Z,25.8
2018-06-12T22:38:04.934Z,25.8
2018-06-12T22:40:07.590Z,25.8
2018-06-12T22:42:07.861Z,25.8
2018-06-12T22:44:04.680Z,25.8
2018-06-12T22:46:05.387Z,25.8
2018-06-12T22:48:04.992Z,25.8
2018-06-12T22:50:05.200Z,25.8
2018-06-12T22:52:05.379Z,25.8
2018-06-12T22:54:05.687Z,25.8
2018-06-12T22:56:12.333Z,25.8
2018-06-12T22:58:05.005Z,25.8
2018-06-12T23:00:06.247Z,25.8
2018-06-12T23:02:05.494Z,25.8
2018-06-12T23:04:07.717Z,25.7
2018-06-12T23:06:05.568Z,25.8
2018-06-12T23:08:08.090Z,25.7
2018-06-12T23:10:04.783Z,25.6
2018-06-12T23:12:05.100Z,25.6
2018-06-12T23:14:04.804Z,25.5
2018-06-12T23:16:08.997Z,25.4
2018-06-12T23:18:07.877Z,25.4
2018-06-12T23:20:05.542Z,25.4
2018-06-12T23:22:05.716Z,25.4
2018-06-12T23:24:05.592Z,25.3
2018-06-12T23:26:09.956Z,25.3
2018-06-12T23:28:07.235Z,25.2
2018-06-12T23:30:04.759Z,25.2
2018-06-12T23:32:05.523Z,25.3
2018-06-12T23:34:07.785Z,25.2
2018-06-12T23:36:04.924Z,25.1
2018-06-12T23:38:05.638Z,25.2
2018-06-12T23:40:05.323Z,25.1
2018-06-12T23:42:04.994Z,25.1
2018-06-12T23:44:04.758Z,25.1
2018-06-12T23:46:05.444Z,25.1
2018-06-12T23:48:05.169Z,25.1
2018-06-12T23:50:04.874Z,25
2018-06-12T23:52:04.708Z,25
2018-06-12T23:54:04.930Z,24.9
2018-06-12T23:56:07.228Z,24.9
2018-06-12T23:58:04.988Z,24.9
